createdAt,value
2023-04-06T00:01:09.462Z,3.5
2023-04-06T00:21:16.234Z,3.4
2023-04-06T00:41:18.894Z,3.1
2023-04-06T01:01:13.665Z,2.9
2023-04-06T01:21:25.500Z,2.8
2023-04-06T01:41:07.398Z,2.7
2023-04-06T02:01:13.553Z,2.7
2023-04-06T02:21:07.970Z,2.6
2023-04-06T02:41:08.385Z,2.5
2023-04-06T03:00:54.626Z,2.4
2023-04-06T03:20:52.690Z,2.3
2023-04-06T03:40:48.050Z,2.2
2023-04-06T04:01:04.210Z,2.1
2023-04-06T04:20:50.018Z,1.9
2023-04-06T04:40:56.243Z,1.9
2023-04-06T05:01:15.646Z,1.7
2023-04-06T05:21:18.440Z,1.6
2023-04-06T05:41:08.372Z,1.6
2023-04-06T06:01:16.242Z,2
2023-04-06T06:21:18.599Z,2.1
2023-04-06T06:41:16.952Z,2.7
2023-04-06T07:01:17.374Z,3.4
2023-04-06T07:21:09.063Z,3.3
2023-04-06T07:41:12.744Z,3.9
2023-04-06T08:01:08.416Z,4.5
2023-04-06T08:20:52.397Z,5.1
2023-04-06T08:41:09.338Z,5.7
2023-04-06T09:01:40.850Z,7
2023-04-06T09:21:39.174Z,7.5
2023-04-06T09:41:39.235Z,8.2
2023-04-06T10:22:08.680Z,9.3
2023-04-06T10:41:15.588Z,9.3
2023-04-06T11:01:21.279Z,10.1
2023-04-06T11:21:42.725Z,10
2023-04-06T11:41:13.522Z,10.4
2023-04-06T12:01:14.204Z,11
2023-04-06T12:21:12.236Z,11
2023-04-06T12:41:20.730Z,11.8
2023-04-06T13:01:18.840Z,12.1
2023-04-06T13:21:27.928Z,12.2
2023-04-06T13:40:51.535Z,12.2
2023-04-06T14:00:49.153Z,12
2023-04-06T14:21:16.209Z,12.7
2023-04-06T14:41:10.206Z,12.7
2023-04-06T15:00:48.804Z,13.1
2023-04-06T15:20:49.151Z,13.5
2023-04-06T15:41:18.889Z,13.3
2023-04-06T16:01:18.183Z,12.8
2023-04-06T16:21:17.973Z,12.4
2023-04-06T16:41:18.526Z,12.5
2023-04-06T17:01:23.132Z,12.3
2023-04-06T17:21:14.813Z,12.3
2023-04-06T17:41:13.477Z,12.3
2023-04-06T18:00:50.851Z,12
2023-04-06T18:20:50.282Z,11.8
2023-04-06T18:40:52.328Z,11.5
2023-04-06T19:01:00.447Z,10.8
2023-04-06T19:21:08.716Z,10.8
2023-04-06T19:40:50.469Z,10.8
2023-04-06T20:00:50.200Z,10.4
2023-04-06T20:20:54.344Z,9.9
2023-04-06T20:41:03.296Z,9.8
2023-04-06T21:00:51.507Z,9.7
2023-04-06T21:20:46.097Z,9.7
2023-04-06T21:40:47.193Z,9.7
2023-04-06T22:00:52.222Z,9.7
2023-04-06T22:20:46.568Z,9.5
2023-04-06T22:40:50.742Z,9.4
2023-04-06T23:00:47.584Z,9.3
2023-04-06T23:21:12.843Z,9.1
2023-04-06T23:41:20.305Z,9
